Last 7 Days

Williams 2 (WL2)

Hourly Data | America/Los_Angeles
as of 1/25/20 9:32 PM PST
Date & Time Temp (°F) RH (%) Dew Pt (°F) Wind Spd (mph) Wind Dir (°) Wind Gust (mph) Latest Rain (In) Daily Rain (In) Daily Min Temp (°F) Daily Max Temp (°F)
1/25/20 - 2100 51.8 92 49.7 0.0 ESE | 118 2.1 0.00 0.00 44.2 59.1
1/25/20 - 2000 52.0 90 49.2 0.0 N | 0 0.0 0.00 0.00 44.2 59.1
1/25/20 - 1900 52.0 90 49.3 0.0 SSE | 154 2.4 0.00 0.00 44.2 59.1
1/25/20 - 1800 52.8 89 49.6 0.0 N | 0 0.0 0.00 0.00 44.2 59.1
1/25/20 - 1700 54.2 86 50.2 1.1 SE | 134 5.8 0.00 0.00 44.2 59.1
1/25/20 - 1600 56.0 83 51.0 3.0 SSE | 159 6.4 0.00 0.00 44.2 59.1
1/25/20 - 1500 57.5 80 51.4 3.6 SSE | 154 8.4 0.00 0.00 44.2 59.1
1/25/20 - 1400 57.5 78 50.9 2.3 SSW | 195 6.1 0.00 0.00 44.2 58.0
1/25/20 - 1300 56.5 80 50.5 3.1 S | 171 6.8 0.00 0.00 44.2 57.0
1/25/20 - 1200 55.1 81 49.4 1.2 SSE | 165 4.4 0.00 0.00 44.2 56.0
1/25/20 - 1100 53.3 83 48.3 1.8 SSE | 154 5.4 0.00 0.00 44.2 54.4
1/25/20 - 1000 50.5 88 47.2 0.1 SE | 125 3.4 0.00 0.00 44.2 52.2
1/25/20 - 0900 47.5 95 46.0 0.0 N | 0 0.0 0.00 0.00 44.2 48.8
1/25/20 - 0800 46.1 96 45.0 1.3 NNW | 338 5.4 0.00 0.00 44.2 48.7
1/25/20 - 0700 45.8 96 44.8 0.0 N | 0 0.0 0.00 0.00 44.2 48.7
1/25/20 - 0600 45.8 96 44.7 0.0 N | 7 2.1 0.00 0.00 44.2 48.7
1/25/20 - 0500 45.5 96 44.5 0.0 N | 0 0.0 0.00 0.00 44.2 48.7
1/25/20 - 0400 46.0 95 44.5 0.0 ESE | 115 2.4 0.00 0.00 44.2 48.7
1/25/20 - 0300 47.5 94 45.9 0.0 N | 0 0.0 0.00 0.00 47.2 48.7
1/25/20 - 0200 47.9 94 46.1 0.0 N | 0 0.0 0.00 0.00 47.8 48.7
1/25/20 - 0100 48.1 93 46.2 0.0 N | 0 0.0 0.00 0.00 47.8 48.7
1/25/20 - 0000 48.8 92 46.6 0.0 NE | 56 1.4 0.00 0.00 37.1 62.7
1/24/20 - 2300 49.5 91 47.0 1.7 E | 101 5.4 0.00 0.00 37.1 62.7
1/24/20 - 2200 49.9 91 47.4 0.4 ESE | 118 3.8 0.00 0.00 37.1 62.7
1/24/20 - 2100 51.5 89 48.4 0.2 SSE | 164 3.8 0.00 0.00 37.1 62.7
1/24/20 - 2000 52.7 86 48.8 0.0 N | 0 0.0 0.00 0.00 37.1 62.7
1/24/20 - 1900 54.8 82 49.5 0.0 N | 0 2.7 0.00 0.00 37.1 62.7
1/24/20 - 1800 57.7 76 50.3 1.2 N | 359 5.4 0.00 0.00 37.1 62.7
1/24/20 - 1700 60.6 70 50.8 1.1 SE | 130 4.1 0.00 0.00 37.1 62.7
1/24/20 - 1600 61.4 67 50.5 2.6 ESE | 106 7.4 0.00 0.00 37.1 62.7
1/24/20 - 1500 60.7 69 50.6 2.6 SSE | 147 7.4 0.00 0.00 37.1 62.6
1/24/20 - 1400 61.1 70 51.2 4.3 SE | 145 8.4 0.00 0.00 37.1 62.6
1/24/20 - 1300 59.7 72 50.7 5.0 SE | 146 9.5 0.00 0.00 37.1 60.5
1/24/20 - 1200 58.7 73 50.0 3.7 SE | 128 7.8 0.00 0.00 37.1 59.9
1/24/20 - 1100 56.0 75 48.4 0.2 SE | 127 3.8 0.00 0.00 37.1 58.2
1/24/20 - 1000 49.6 85 45.4 0.2 S | 179 3.4 0.00 0.00 37.1 53.0
1/24/20 - 0900 42.3 95 41.0 0.0 N | 0 0.0 0.00 0.00 37.1 46.4
1/24/20 - 0800 38.8 96 37.6 0.2 E | 98 3.1 0.00 0.00 37.1 41.4
1/24/20 - 0700 38.5 95 37.3 0.6 SSE | 147 4.8 0.00 0.00 37.1 41.4
1/24/20 - 0600 39.4 95 38.1 2.1 NNW | 341 10.5 0.00 0.00 37.8 41.4
1/24/20 - 0500 38.5 96 37.6 2.1 NNW | 348 9.5 0.00 0.00 37.8 41.4
1/24/20 - 0400 39.3 96 38.2 0.2 NW | 313 3.1 0.00 0.00 38.7 41.4
1/24/20 - 0300 39.3 96 38.1 0.3 N | 356 5.1 0.00 0.00 38.7 41.4
1/24/20 - 0200 40.1 95 38.9 2.5 N | 350 6.4 0.00 0.00 39.1 41.4
1/24/20 - 0100 40.8 95 39.6 4.1 NNW | 347 8.4 0.00 0.00 40.2 41.4
1/24/20 - 0000 41.1 96 39.9 3.6 NNW | 346 7.8 0.00 0.00 37.9 54.8
1/23/20 - 2300 42.2 94 40.7 0.8 NNW | 343 5.8 0.00 0.00 37.9 54.8
1/23/20 - 2200 44.0 93 42.0 0.4 NNE | 12 5.1 0.00 0.00 37.9 54.8
1/23/20 - 2100 45.4 92 43.3 2.3 NNW | 347 7.4 0.00 0.00 37.9 54.8
1/23/20 - 2000 45.9 91 43.6 0.1 NNW | 343 3.4 0.00 0.00 37.9 54.8
1/23/20 - 1900 48.2 88 45.0 0.0 N | 0 0.0 0.00 0.00 37.9 54.8
1/23/20 - 1800 50.4 84 45.8 0.0 SSW | 193 2.1 0.00 0.00 37.9 54.8
1/23/20 - 1700 53.1 77 46.0 1.3 SSW | 199 5.1 0.00 0.00 37.9 54.8
1/23/20 - 1600 54.3 73 46.0 1.8 SSW | 208 5.1 0.00 0.00 37.9 54.8
1/23/20 - 1500 53.5 75 45.9 1.7 SSW | 203 5.4 0.00 0.00 37.9 54.3
1/23/20 - 1400 52.1 78 45.5 1.0 S | 183 4.4 0.00 0.00 37.9 52.8
1/23/20 - 1300 51.6 78 45.1 2.4 S | 176 5.8 0.00 0.00 37.9 52.2
1/23/20 - 1200 50.2 81 44.7 2.4 S | 190 6.8 0.00 0.00 37.9 51.2
1/23/20 - 1100 47.2 85 43.0 0.5 S | 191 5.8 0.00 0.00 37.9 49.9
1/23/20 - 1000 42.5 93 40.6 0.0 N | 0 0.0 0.00 0.00 37.9 44.0
1/23/20 - 0900 40.8 94 39.1 0.7 N | 359 5.1 0.00 0.00 37.9 41.5
1/23/20 - 0800 38.7 94 37.3 0.2 NNW | 348 6.1 0.00 0.00 37.9 40.7
1/23/20 - 0700 39.8 94 38.3 1.4 N | 357 5.4 0.00 0.00 37.9 40.7
1/23/20 - 0600 39.2 94 37.7 2.3 N | 352 8.4 0.00 0.00 37.9 40.7
1/23/20 - 0500 39.3 95 37.9 3.8 NNW | 347 8.4 0.00 0.00 37.9 40.7
1/23/20 - 0400 38.8 95 37.6 2.6 NNW | 348 6.4 0.00 0.00 37.9 40.7
1/23/20 - 0300 39.2 95 38.0 2.7 N | 350 6.4 0.00 0.00 38.1 40.7
1/23/20 - 0200 39.4 95 38.0 3.0 NNW | 337 5.8 0.00 0.00 38.2 40.7
1/23/20 - 0100 39.3 95 38.0 4.5 N | 355 7.4 0.00 0.00 38.6 40.1
1/23/20 - 0000 40.3 94 38.7 3.7 NNW | 331 7.8 0.00 0.00 36.7 59.6
1/22/20 - 2300 42.0 93 40.1 4.2 N | 356 8.4 0.00 0.00 36.7 59.6
1/22/20 - 2200 42.2 93 40.4 5.3 N | 350 8.8 0.00 0.00 36.7 59.6
1/22/20 - 2100 42.0 94 40.4 4.2 NNW | 343 7.4 0.00 0.00 36.7 59.6
1/22/20 - 2000 43.0 93 41.1 3.5 NNW | 338 7.4 0.00 0.00 36.7 59.6
1/22/20 - 1900 45.4 90 42.6 0.9 N | 358 4.8 0.00 0.00 36.7 59.6
1/22/20 - 1800 50.4 82 45.2 0.4 N | 1 3.8 0.00 0.00 36.7 59.6
1/22/20 - 1700 57.5 68 47.2 2.2 SSE | 158 5.8 0.00 0.00 36.7 59.6
1/22/20 - 1600 58.8 64 46.5 2.8 SSE | 148 6.8 0.00 0.00 36.7 59.6
1/22/20 - 1500 58.7 61 45.4 2.9 S | 189 7.4 0.00 0.00 36.7 59.4
1/22/20 - 1400 57.3 61 44.1 3.1 SSW | 202 8.1 0.00 0.00 36.7 58.1
1/22/20 - 1300 55.7 64 43.8 2.9 SSW | 195 7.1 0.00 0.00 36.7 56.8
1/22/20 - 1200 54.6 60 41.0 1.9 S | 184 7.1 0.00 0.00 36.7 55.2
1/22/20 - 1100 51.5 70 41.8 1.0 WSW | 252 5.1 0.00 0.00 36.7 54.3
1/22/20 - 1000 44.5 87 40.8 3.0 NNW | 339 7.4 0.00 0.00 36.7 47.9
1/22/20 - 0900 39.3 94 37.7 5.5 N | 355 9.8 0.00 0.00 36.7 45.7
1/22/20 - 0800 37.2 97 36.4 6.3 N | 350 10.5 0.00 0.00 36.7 45.7
1/22/20 - 0700 37.2 97 36.4 4.2 NNW | 332 8.8 0.00 0.00 36.7 45.7
1/22/20 - 0600 38.2 96 37.3 2.1 NNW | 342 5.8 0.00 0.00 37.6 45.7
1/22/20 - 0500 40.5 96 39.4 2.4 NNW | 343 7.4 0.00 0.00 39.0 45.7
1/22/20 - 0400 41.5 97 40.6 4.2 NNW | 344 8.1 0.00 0.00 41.1 45.7
1/22/20 - 0300 42.5 96 41.5 2.0 NNW | 337 6.8 0.00 0.00 41.8 45.7
1/22/20 - 0200 44.1 96 42.9 0.0 WNW | 284 1.1 0.00 0.00 43.1 45.7
1/22/20 - 0100 45.4 94 43.9 0.0 SSE | 150 2.4 0.00 0.00 44.9 45.7
1/22/20 - 0000 46.0 94 44.2 1.1 ESE | 110 4.4 0.00 0.45 36.6 47.0
1/21/20 - 2300 46.6 91 44.2 1.6 SSE | 163 11.5 0.00 0.45 36.6 47.0
1/21/20 - 2200 46.4 92 44.4 5.7 SW | 230 13.8 0.00 0.45 36.6 47.0
1/21/20 - 2100 45.5 96 44.4 5.0 SSW | 204 12.1 0.00 0.45 36.6 47.0
1/21/20 - 2000 45.2 97 44.3 1.9 S | 178 7.1 0.01 0.45 36.6 47.0
1/21/20 - 1900 45.6 97 44.7 0.3 SE | 142 4.1 0.01 0.44 36.6 47.0
1/21/20 - 1800 45.8 97 45.0 2.0 SE | 138 7.1 0.03 0.43 36.6 47.0
1/21/20 - 1700 46.4 96 45.4 3.4 SE | 132 7.4 0.12 0.40 36.6 47.0
1/21/20 - 1600 46.6 95 45.3 0.6 E | 95 5.4 0.18 0.28 36.6 47.0
1/21/20 - 1500 46.2 92 44.1 0.1 NNE | 15 2.7 0.04 0.10 36.6 47.0
1/21/20 - 1400 46.6 89 43.4 0.0 N | 0 0.0 0.03 0.06 36.6 47.0
1/21/20 - 1300 46.4 87 42.9 0.0 N | 0 0.0 0.00 0.03 36.6 46.8
1/21/20 - 1200 46.1 87 42.6 0.5 SE | 140 4.4 0.00 0.03 36.6 46.4
1/21/20 - 1100 44.5 90 41.7 0.0 N | 0 0.0 0.00 0.03 36.6 45.6
1/21/20 - 1000 42.5 95 41.2 0.1 NE | 50 2.7 0.00 0.03 36.6 43.3
1/21/20 - 0900 40.5 97 39.6 0.0 N | 0 0.0 0.00 0.03 36.6 41.9
1/21/20 - 0800 39.7 96 38.8 0.1 NW | 315 2.7 0.01 0.03 36.6 41.9
1/21/20 - 0700 39.6 96 38.6 0.1 E | 95 3.4 0.02 0.02 36.6 41.9
1/21/20 - 0600 39.4 96 38.2 0.0 NNE | 14 1.4 0.00 0.00 36.6 41.9
1/21/20 - 0500 39.7 95 38.3 0.0 N | 0 0.0 0.00 0.00 36.6 41.9
1/21/20 - 0400 39.5 95 38.2 0.3 ESE | 120 5.4 0.00 0.00 36.6 41.9
1/21/20 - 0300 37.8 96 36.6 0.0 N | 0 0.0 0.00 0.00 36.6 39.4
1/21/20 - 0200 37.8 95 36.6 0.8 N | 11 6.4 0.00 0.00 36.6 39.2
1/21/20 - 0100 37.1 96 36.0 0.9 NNW | 329 5.1 0.00 0.00 36.6 37.8
1/21/20 - 0000 36.9 95 35.7 0.6 NNW | 343 4.8 0.00 0.00 36.0 49.3
1/20/20 - 2300 38.1 93 36.3 0.4 N | 350 5.1 0.00 0.00 36.2 49.3
1/20/20 - 2200 39.7 93 37.8 1.9 N | 352 5.8 0.00 0.00 36.2 49.3
1/20/20 - 2100 41.4 90 38.8 0.1 ESE | 121 3.4 0.00 0.00 36.2 49.3
1/20/20 - 2000 44.2 86 40.2 2.5 N | 350 10.8 0.00 0.00 36.2 49.3
1/20/20 - 1900 44.1 86 40.3 2.0 NNW | 341 7.8 0.00 0.00 36.2 49.3
1/20/20 - 1800 46.0 82 40.9 0.1 SE | 137 2.4 0.00 0.00 36.2 49.3
1/20/20 - 1700 47.5 79 41.4 0.9 SSE | 165 5.8 0.00 0.00 36.2 49.3
1/20/20 - 1600 48.6 76 41.4 2.8 SSE | 161 5.4 0.00 0.00 36.2 49.3
1/20/20 - 1500 48.2 78 41.9 1.1 SSW | 197 5.1 0.00 0.00 36.2 49.2
1/20/20 - 1400 45.5 83 40.8 1.3 SSE | 151 4.8 0.00 0.00 36.2 47.1
1/20/20 - 1300 42.6 88 39.2 1.5 WSW | 242 5.4 0.00 0.00 36.2 43.7
1/20/20 - 1200 41.1 90 38.4 1.7 SSE | 153 7.1 0.00 0.00 36.2 42.0
1/20/20 - 1100 38.6 94 37.1 0.7 E | 92 4.1 0.00 0.00 36.2 39.8
1/20/20 - 1000 37.5 96 36.3 0.9 SE | 124 5.4 0.00 0.00 36.2 37.9
1/20/20 - 0900 36.9 96 35.9 0.9 ESE | 114 4.8 0.00 0.00 36.2 37.9
1/20/20 - 0800 36.4 96 35.3 0.8 SE | 136 5.1 0.00 0.00 36.2 37.9
1/20/20 - 0700 36.8 95 35.6 0.3 NE | 51 4.4 0.00 0.00 36.5 37.9
1/20/20 - 0600 36.8 95 35.5 0.5 SE | 141 4.4 0.00 0.00 36.5 37.9
1/20/20 - 0500 37.0 94 35.5 0.1 ESE | 107 2.4 0.00 0.00 36.5 37.9
1/20/20 - 0400 37.0 96 35.8 4.3 NNW | 342 11.8 0.00 0.00 36.5 37.9
1/20/20 - 0300 37.0 95 35.8 0.7 S | 183 4.4 0.00 0.00 36.5 37.9
1/20/20 - 0200 37.4 95 36.2 1.1 NNW | 339 6.8 0.00 0.00 37.2 37.9
1/20/20 - 0100 37.7 95 36.4 0.0 N | 0 0.0 0.00 0.00 37.4 37.9
1/20/20 - 0000 37.1 96 36.1 0.0 N | 0 0.0 0.00 0.00 31.6 45.9
1/19/20 - 2300 37.2 96 36.0 0.0 N | 0 0.0 0.00 0.00 31.6 45.9
1/19/20 - 2200 37.9 95 36.6 0.0 N | 0 0.0 0.00 0.00 31.6 45.9
1/19/20 - 2100 38.2 95 36.9 0.0 N | 0 0.0 0.00 0.00 31.6 45.9
1/19/20 - 2000 38.5 94 37.0 0.5 SW | 225 4.4 0.00 0.00 31.6 45.9
1/19/20 - 1900 39.0 94 37.4 2.4 SSW | 194 8.4 0.00 0.00 31.6 45.9
1/19/20 - 1800 40.0 92 37.9 2.7 SSW | 204 7.8 0.00 0.00 31.6 45.9
1/19/20 - 1700 42.3 89 39.4 4.3 SSW | 204 8.1 0.00 0.00 31.6 45.9
1/19/20 - 1600 43.9 86 39.9 3.7 SW | 222 7.1 0.00 0.00 31.6 45.9
1/19/20 - 1500 44.6 82 39.6 4.0 SSW | 203 9.1 0.00 0.00 31.6 45.9
1/19/20 - 1400 45.4 79 39.3 4.8 S | 180 10.1 0.00 0.00 31.6 45.9
1/19/20 - 1300 45.1 78 38.8 5.3 S | 176 10.1 0.00 0.00 31.6 45.9
1/19/20 - 1200 44.4 80 38.7 4.8 SSE | 163 9.5 0.00 0.00 31.6 45.9
1/19/20 - 1100 39.4 90 36.8 4.3 S | 170 9.5 0.00 0.00 31.6 42.6
1/19/20 - 1000 34.7 96 33.8 1.4 S | 181 6.8 0.00 0.00 31.6 36.6
1/19/20 - 0900 33.9 97 33.1 0.3 SSW | 208 4.8 0.00 0.00 31.6 36.6
1/19/20 - 0800 33.0 97 32.2 1.6 S | 180 6.8 0.00 0.00 31.6 36.6
1/19/20 - 0700 31.8 96 30.9 0.0 ENE | 73 0.7 0.00 0.00 31.6 36.6
1/19/20 - 0600 32.3 96 31.2 0.0 N | 0 0.0 0.00 0.00 32.0 36.6
1/19/20 - 0500 32.8 95 31.6 0.0 N | 357 2.4 0.00 0.00 32.6 36.6
1/19/20 - 0400 33.6 95 32.2 0.0 N | 0 0.0 0.00 0.00 32.9 36.6
1/19/20 - 0300 34.8 94 33.3 0.7 NNW | 344 5.4 0.00 0.00 34.3 36.6
1/19/20 - 0200 35.5 94 33.9 0.7 NNW | 342 5.1 0.00 0.00 35.0 36.6
1/19/20 - 0100 36.4 94 34.7 0.4 NNW | 347 5.8 0.00 0.00 36.2 36.6
1/19/20 - 0000 36.9 93 35.1 0.1 NNW | 334 3.1 0.00 0.00 29.9 54.8
1/18/20 - 2300 37.7 92 35.7 0.3 N | 351 5.4 0.00 0.00 29.9 54.8
1/18/20 - 2200 38.4 92 36.2 0.1 NW | 311 3.1 0.00 0.00 29.9 54.8
Max 61.4 97 51.4 6.3 - 13.8 0.18 0.45 47.8 62.7
Avg 44.5 89 41.4 1.5 - 5.0 0.00 - - -
Min 31.8 60 30.9 0.0 - 0.0 0.00 0.00 29.9 36.6
Total - - - - - - 0.45 - - -
Tip: Bookmark this page for easy future reference